Time;durP1;ratioP1;P1;durP2;ratioP2;P2;SDS_P1;SDS_P2;PMS_P1;PMS_P2;Temp;Humidity;BMP_temperature;BMP_pressure;BME280_temperature;BME280_humidity;BME280_pressure;Samples;Min_cycle;Max_cycle;Signal;HPM_P1;HPM_P2
2019/10/04 00:00:15;;;;;;;5.3;4.1;;;;;;;6.86;92.65625;95168.8;;;;
2019/10/04 00:01:18;;;;;;;5.3;4.1;;;;;;;6.86;92.65625;95168.8;;;;
2019/10/04 00:07:37;;;;;;;4.950001;4.25;;;;;;;6.51;92.62402;95163.12;;;;
2019/10/04 00:08:38;;;;;;;4.950001;4.25;;;;;;;6.51;92.62402;95163.12;;;;
2019/10/04 00:09:39;;;;;;;4.950001;4.25;;;;;;;6.51;92.62402;95163.12;;;;
2019/10/04 00:10:40;;;;;;;4.950001;4.25;;;;;;;6.51;92.62402;95163.12;;;;
2019/10/04 00:11:41;;;;;;;4.950001;4.25;;;;;;;6.51;92.62402;95163.12;;;;
2019/10/04 00:12:42;;;;;;;4.950001;4.25;;;;;;;6.51;92.62402;95163.12;;;;
2019/10/04 00:13:43;;;;;;;7.349999;4.45;;;;;;;6.11;92.92969;95141.44;;;;
2019/10/04 00:14:44;;;;;;;7.349999;4.45;;;;;;;6.11;92.92969;95141.44;;;;
2019/10/04 00:15:45;;;;;;;7.349999;4.45;;;;;;;6.11;92.92969;95141.44;;;;
2019/10/04 00:16:47;;;;;;;7.349999;4.45;;;;;;;6.11;92.92969;95141.44;;;;
2019/10/04 00:17:48;;;;;;;7.349999;4.45;;;;;;;6.11;92.92969;95141.44;;;;
2019/10/04 00:18:49;;;;;;;7.349999;4.45;;;;;;;6.11;92.92969;95141.44;;;;
2019/10/04 00:19:51;;;;;;;7.349999;4.45;;;;;;;6.11;92.92969;95141.44;;;;
2019/10/04 00:20:52;;;;;;;7.349999;4.45;;;;;;;6.11;92.92969;95141.44;;;;
2019/10/04 00:21:53;;;;;;;7.349999;4.45;;;;;;;6.11;92.92969;95141.44;;;;
2019/10/04 00:22:54;;;;;;;7.349999;4.45;;;;;;;6.11;92.92969;95141.44;;;;
2019/10/04 00:23:55;;;;;;;7.349999;4.45;;;;;;;6.11;92.92969;95141.44;;;;
2019/10/04 00:24:56;;;;;;;5.6;4.7;;;;;;;5.68;93.25781;95125.56;;;;
2019/10/04 00:25:57;;;;;;;5.6;4.7;;;;;;;5.68;93.25781;95125.56;;;;
2019/10/04 00:26:59;;;;;;;5.6;4.7;;;;;;;5.68;93.25781;95125.56;;;;
2019/10/04 00:28:00;;;;;;;5.6;4.7;;;;;;;5.68;93.25781;95125.56;;;;
2019/10/04 00:29:01;;;;;;;5.6;4.7;;;;;;;5.68;93.25781;95125.56;;;;
2019/10/04 00:30:02;;;;;;;5.6;4.7;;;;;;;5.68;93.25781;95125.56;;;;
2019/10/04 00:31:04;;;;;;;5.6;4.7;;;;;;;5.68;93.25781;95125.56;;;;
2019/10/04 00:32:09;;;;;;;5.6;4.7;;;;;;;5.68;93.25781;95125.56;;;;
2019/10/04 00:33:11;;;;;;;5.6;4.7;;;;;;;5.68;93.25781;95125.56;;;;
2019/10/04 00:34:12;;;;;;;5.6;4.7;;;;;;;5.68;93.25781;95125.56;;;;
2019/10/04 00:35:13;;;;;;;5.15;4.45;;;;;;;5.48;93.8457;95116.24;;;;
2019/10/04 00:36:14;;;;;;;5.15;4.45;;;;;;;5.48;93.8457;95116.24;;;;
2019/10/04 00:37:15;;;;;;;5.15;4.45;;;;;;;5.48;93.8457;95116.24;;;;
2019/10/04 00:38:17;;;;;;;5.15;4.45;;;;;;;5.48;93.8457;95116.24;;;;
2019/10/04 00:39:18;;;;;;;5.15;4.45;;;;;;;5.48;93.8457;95116.24;;;;
2019/10/04 00:40:19;;;;;;;5.15;4.45;;;;;;;5.48;93.8457;95116.24;;;;
2019/10/04 00:41:21;;;;;;;5.15;4.45;;;;;;;5.48;93.8457;95116.24;;;;
2019/10/04 00:42:22;;;;;;;5.15;4.45;;;;;;;5.48;93.8457;95116.24;;;;
2019/10/04 00:43:23;;;;;;;5.15;4.45;;;;;;;5.48;93.8457;95116.24;;;;
2019/10/04 00:44:24;;;;;;;5.15;4.45;;;;;;;5.48;93.8457;95116.24;;;;
2019/10/04 00:45:26;;;;;;;5.85;4.95;;;;;;;5.39;94.05664;95094.81;;;;
2019/10/04 00:46:27;;;;;;;5.85;4.95;;;;;;;5.39;94.05664;95094.81;;;;
2019/10/04 00:47:28;;;;;;;5.85;4.95;;;;;;;5.39;94.05664;95094.81;;;;
2019/10/04 00:48:29;;;;;;;5.85;4.95;;;;;;;5.39;94.05664;95094.81;;;;
2019/10/04 00:49:30;;;;;;;5.85;4.95;;;;;;;5.39;94.05664;95094.81;;;;
2019/10/04 00:50:31;;;;;;;5.85;4.95;;;;;;;5.39;94.05664;95094.81;;;;
2019/10/04 00:51:32;;;;;;;5.85;4.95;;;;;;;5.39;94.05664;95094.81;;;;
2019/10/04 00:52:33;;;;;;;5.85;4.95;;;;;;;5.39;94.05664;95094.81;;;;
2019/10/04 00:53:35;;;;;;;5.85;4.95;;;;;;;5.39;94.05664;95094.81;;;;
2019/10/04 00:54:36;;;;;;;5.85;4.95;;;;;;;5.39;94.05664;95094.81;;;;
2019/10/04 00:55:37;;;;;;;5.85;4.95;;;;;;;5.39;94.05664;95094.81;;;;
2019/10/04 00:56:38;;;;;;;5.599999;4.8;;;;;;;5.39;94.24609;95086.69;;;;
2019/10/04 00:57:39;;;;;;;5.599999;4.8;;;;;;;5.39;94.24609;95086.69;;;;
2019/10/04 00:58:40;;;;;;;5.599999;4.8;;;;;;;5.39;94.24609;95086.69;;;;
2019/10/04 00:59:41;;;;;;;5.599999;4.8;;;;;;;5.39;94.24609;95086.69;;;;
2019/10/04 01:00:42;;;;;;;5.599999;4.8;;;;;;;5.39;94.24609;95086.69;;;;
2019/10/04 01:01:54;;;;;;;5.599999;4.8;;;;;;;5.39;94.24609;95086.69;;;;
2019/10/04 01:02:55;;;;;;;5.599999;4.8;;;;;;;5.39;94.24609;95086.69;;;;
2019/10/04 01:03:56;;;;;;;5.599999;4.8;;;;;;;5.39;94.24609;95086.69;;;;
2019/10/04 01:04:57;;;;;;;5.599999;4.8;;;;;;;5.39;94.24609;95086.69;;;;
2019/10/04 01:05:58;;;;;;;5.599999;4.8;;;;;;;5.39;94.24609;95086.69;;;;
2019/10/04 01:07:00;;;;;;;6.750001;4.45;;;;;;;5.24;94.34082;95078.48;;;;
2019/10/04 01:08:01;;;;;;;6.750001;4.45;;;;;;;5.24;94.34082;95078.48;;;;
2019/10/04 01:09:03;;;;;;;6.750001;4.45;;;;;;;5.24;94.34082;95078.48;;;;
2019/10/04 01:10:09;;;;;;;6.750001;4.45;;;;;;;5.24;94.34082;95078.48;;;;
2019/10/04 01:11:11;;;;;;;6.750001;4.45;;;;;;;5.24;94.34082;95078.48;;;;
2019/10/04 01:12:12;;;;;;;6.750001;4.45;;;;;;;5.24;94.34082;95078.48;;;;
2019/10/04 01:13:14;;;;;;;6.750001;4.45;;;;;;;5.24;94.34082;95078.48;;;;
2019/10/04 01:14:15;;;;;;;6.750001;4.45;;;;;;;5.24;94.34082;95078.48;;;;
2019/10/04 01:15:16;;;;;;;6.750001;4.45;;;;;;;5.24;94.34082;95078.48;;;;
2019/10/04 01:16:18;;;;;;;6.750001;4.45;;;;;;;5.24;94.34082;95078.48;;;;
2019/10/04 01:17:20;;;;;;;6.45;4.5;;;;;;;5.09;94.47363;95087.35;;;;
2019/10/04 01:18:21;;;;;;;6.45;4.5;;;;;;;5.09;94.47363;95087.35;;;;
2019/10/04 01:19:22;;;;;;;6.45;4.5;;;;;;;5.09;94.47363;95087.35;;;;
2019/10/04 01:20:23;;;;;;;6.45;4.5;;;;;;;5.09;94.47363;95087.35;;;;
2019/10/04 01:21:25;;;;;;;6.45;4.5;;;;;;;5.09;94.47363;95087.35;;;;
2019/10/04 01:22:26;;;;;;;6.45;4.5;;;;;;;5.09;94.47363;95087.35;;;;
2019/10/04 01:23:27;;;;;;;6.45;4.5;;;;;;;5.09;94.47363;95087.35;;;;
2019/10/04 01:24:32;;;;;;;6.45;4.5;;;;;;;5.09;94.47363;95087.35;;;;
2019/10/04 01:25:34;;;;;;;6.45;4.5;;;;;;;5.09;94.47363;95087.35;;;;
2019/10/04 01:26:35;;;;;;;6.45;4.5;;;;;;;5.09;94.47363;95087.35;;;;
2019/10/04 01:27:36;;;;;;;6.25;4.25;;;;;;;4.89;94.81934;95082.39;;;;
2019/10/04 01:28:38;;;;;;;6.25;4.25;;;;;;;4.89;94.81934;95082.39;;;;
2019/10/04 01:29:39;;;;;;;6.25;4.25;;;;;;;4.89;94.81934;95082.39;;;;
2019/10/04 01:30:40;;;;;;;6.25;4.25;;;;;;;4.89;94.81934;95082.39;;;;
2019/10/04 01:31:41;;;;;;;6.25;4.25;;;;;;;4.89;94.81934;95082.39;;;;
2019/10/04 01:32:42;;;;;;;6.25;4.25;;;;;;;4.89;94.81934;95082.39;;;;
2019/10/04 01:33:44;;;;;;;6.25;4.25;;;;;;;4.89;94.81934;95082.39;;;;
2019/10/04 01:34:45;;;;;;;6.25;4.25;;;;;;;4.89;94.81934;95082.39;;;;
2019/10/04 01:35:46;;;;;;;6.25;4.25;;;;;;;4.89;94.81934;95082.39;;;;
2019/10/04 01:36:48;;;;;;;6.25;4.25;;;;;;;4.89;94.81934;95082.39;;;;
2019/10/04 01:37:49;;;;;;;6.25;4.25;;;;;;;4.89;94.81934;95082.39;;;;
2019/10/04 01:38:50;;;;;;;6.599999;4.1;;;;;;;4.84;95.07129;95084.99;;;;
2019/10/04 01:39:51;;;;;;;6.599999;4.1;;;;;;;4.84;95.07129;95084.99;;;;
2019/10/04 01:40:52;;;;;;;6.599999;4.1;;;;;;;4.84;95.07129;95084.99;;;;
2019/10/04 01:41:54;;;;;;;6.599999;4.1;;;;;;;4.84;95.07129;95084.99;;;;
2019/10/04 01:42:55;;;;;;;6.599999;4.1;;;;;;;4.84;95.07129;95084.99;;;;
2019/10/04 01:43:57;;;;;;;6.599999;4.1;;;;;;;4.84;95.07129;95084.99;;;;
2019/10/04 01:44:59;;;;;;;6.599999;4.1;;;;;;;4.84;95.07129;95084.99;;;;
2019/10/04 01:46:00;;;;;;;6.599999;4.1;;;;;;;4.84;95.07129;95084.99;;;;
2019/10/04 01:47:01;;;;;;;6.599999;4.1;;;;;;;4.84;95.07129;95084.99;;;;
2019/10/04 01:48:02;;;;;;;6.599999;4.1;;;;;;;4.84;95.07129;95084.99;;;;
2019/10/04 01:49:04;;;;;;;5.55;4.3;;;;;;;4.63;95.02344;95096.27;;;;
2019/10/04 01:50:05;;;;;;;5.55;4.3;;;;;;;4.63;95.02344;95096.27;;;;
2019/10/04 01:51:07;;;;;;;5.55;4.3;;;;;;;4.63;95.02344;95096.27;;;;
2019/10/04 01:52:08;;;;;;;5.55;4.3;;;;;;;4.63;95.02344;95096.27;;;;
2019/10/04 01:53:09;;;;;;;5.55;4.3;;;;;;;4.63;95.02344;95096.27;;;;
2019/10/04 01:54:10;;;;;;;5.55;4.3;;;;;;;4.63;95.02344;95096.27;;;;
2019/10/04 01:55:11;;;;;;;5.55;4.3;;;;;;;4.63;95.02344;95096.27;;;;
2019/10/04 01:56:15;;;;;;;5.55;4.3;;;;;;;4.63;95.02344;95096.27;;;;
2019/10/04 01:57:16;;;;;;;5.55;4.3;;;;;;;4.63;95.02344;95096.27;;;;
2019/10/04 01:58:17;;;;;;;5.55;4.3;;;;;;;4.63;95.02344;95096.27;;;;
2019/10/04 01:59:18;;;;;;;5.55;4.3;;;;;;;4.63;95.02344;95096.27;;;;
2019/10/04 02:00:20;;;;;;;6.049999;4.649999;;;;;;;4.42;95.37891;95093.28;;;;
2019/10/04 02:01:24;;;;;;;6.049999;4.649999;;;;;;;4.42;95.37891;95093.28;;;;
2019/10/04 02:02:26;;;;;;;6.049999;4.649999;;;;;;;4.42;95.37891;95093.28;;;;
2019/10/04 02:03:27;;;;;;;6.049999;4.649999;;;;;;;4.42;95.37891;95093.28;;;;
2019/10/04 02:04:28;;;;;;;6.049999;4.649999;;;;;;;4.42;95.37891;95093.28;;;;
2019/10/04 02:05:32;;;;;;;6.049999;4.649999;;;;;;;4.42;95.37891;95093.28;;;;
2019/10/04 02:06:36;;;;;;;6.049999;4.649999;;;;;;;4.42;95.37891;95093.28;;;;
2019/10/04 02:07:38;;;;;;;6.049999;4.649999;;;;;;;4.42;95.37891;95093.28;;;;
2019/10/04 02:08:39;;;;;;;6.049999;4.649999;;;;;;;4.42;95.37891;95093.28;;;;
2019/10/04 02:09:40;;;;;;;6.049999;4.649999;;;;;;;4.42;95.37891;95093.28;;;;
2019/10/04 02:10:41;;;;;;;5.15;4.65;;;;;;;4.24;95.64063;95077;;;;
2019/10/04 02:11:44;;;;;;;5.15;4.65;;;;;;;4.24;95.64063;95077;;;;
2019/10/04 02:12:46;;;;;;;5.15;4.65;;;;;;;4.24;95.64063;95077;;;;
2019/10/04 02:13:47;;;;;;;5.15;4.65;;;;;;;4.24;95.64063;95077;;;;
2019/10/04 02:14:48;;;;;;;5.15;4.65;;;;;;;4.24;95.64063;95077;;;;
2019/10/04 02:15:49;;;;;;;5.15;4.65;;;;;;;4.24;95.64063;95077;;;;
2019/10/04 02:16:50;;;;;;;5.15;4.65;;;;;;;4.24;95.64063;95077;;;;
2019/10/04 02:17:51;;;;;;;5.15;4.65;;;;;;;4.24;95.64063;95077;;;;
2019/10/04 02:18:52;;;;;;;5.15;4.65;;;;;;;4.24;95.64063;95077;;;;
2019/10/04 02:19:53;;;;;;;5.15;4.65;;;;;;;4.24;95.64063;95077;;;;
2019/10/04 02:20:55;;;;;;;5.199999;4.55;;;;;;;4.16;95.99023;95070.49;;;;
2019/10/04 02:21:56;;;;;;;5.199999;4.55;;;;;;;4.16;95.99023;95070.49;;;;
2019/10/04 02:22:57;;;;;;;5.199999;4.55;;;;;;;4.16;95.99023;95070.49;;;;
2019/10/04 02:23:58;;;;;;;5.199999;4.55;;;;;;;4.16;95.99023;95070.49;;;;
2019/10/04 02:25:00;;;;;;;5.199999;4.55;;;;;;;4.16;95.99023;95070.49;;;;
2019/10/04 02:26:02;;;;;;;5.199999;4.55;;;;;;;4.16;95.99023;95070.49;;;;
2019/10/04 02:27:03;;;;;;;5.199999;4.55;;;;;;;4.16;95.99023;95070.49;;;;
2019/10/04 02:28:04;;;;;;;5.199999;4.55;;;;;;;4.16;95.99023;95070.49;;;;
2019/10/04 02:29:05;;;;;;;5.199999;4.55;;;;;;;4.16;95.99023;95070.49;;;;
2019/10/04 02:30:06;;;;;;;5.199999;4.55;;;;;;;4.16;95.99023;95070.49;;;;
2019/10/04 02:31:08;;;;;;;5.199999;4.55;;;;;;;4.16;95.99023;95070.49;;;;
2019/10/04 02:32:09;;;;;;;5.4;4.9;;;;;;;4.14;96.03906;95072.54;;;;
2019/10/04 02:33:10;;;;;;;5.4;4.9;;;;;;;4.14;96.03906;95072.54;;;;
2019/10/04 02:34:12;;;;;;;5.4;4.9;;;;;;;4.14;96.03906;95072.54;;;;
2019/10/04 02:35:13;;;;;;;5.4;4.9;;;;;;;4.14;96.03906;95072.54;;;;
2019/10/04 02:36:15;;;;;;;5.4;4.9;;;;;;;4.14;96.03906;95072.54;;;;
2019/10/04 02:37:17;;;;;;;5.4;4.9;;;;;;;4.14;96.03906;95072.54;;;;
2019/10/04 02:38:18;;;;;;;5.4;4.9;;;;;;;4.14;96.03906;95072.54;;;;
2019/10/04 02:39:19;;;;;;;5.4;4.9;;;;;;;4.14;96.03906;95072.54;;;;
2019/10/04 02:40:20;;;;;;;5.4;4.9;;;;;;;4.14;96.03906;95072.54;;;;
2019/10/04 02:41:22;;;;;;;5.4;4.9;;;;;;;4.14;96.03906;95072.54;;;;
2019/10/04 02:42:23;;;;;;;4.6;4.1;;;;;;;4.25;96.35742;95070.2;;;;
2019/10/04 02:43:24;;;;;;;4.6;4.1;;;;;;;4.25;96.35742;95070.2;;;;
2019/10/04 02:44:27;;;;;;;4.6;4.1;;;;;;;4.25;96.35742;95070.2;;;;
2019/10/04 02:45:29;;;;;;;4.6;4.1;;;;;;;4.25;96.35742;95070.2;;;;
2019/10/04 02:46:49;;;;;;;4.6;4.1;;;;;;;4.25;96.35742;95070.2;;;;
2019/10/04 02:47:50;;;;;;;4.6;4.1;;;;;;;4.25;96.35742;95070.2;;;;
2019/10/04 02:48:51;;;;;;;4.6;4.1;;;;;;;4.25;96.35742;95070.2;;;;
2019/10/04 02:49:53;;;;;;;4.6;4.1;;;;;;;4.25;96.35742;95070.2;;;;
2019/10/04 02:50:54;;;;;;;4.6;4.1;;;;;;;4.25;96.35742;95070.2;;;;
2019/10/04 02:51:55;;;;;;;4.6;4.1;;;;;;;4.25;96.35742;95070.2;;;;
2019/10/04 02:52:56;;;;;;;4.1;3.7;;;;;;;4.3;96.52441;95021.39;;;;
2019/10/04 02:53:57;;;;;;;4.1;3.7;;;;;;;4.3;96.52441;95021.39;;;;
2019/10/04 02:54:58;;;;;;;4.1;3.7;;;;;;;4.3;96.52441;95021.39;;;;
2019/10/04 02:55:59;;;;;;;4.1;3.7;;;;;;;4.3;96.52441;95021.39;;;;
2019/10/04 02:57:01;;;;;;;4.1;3.7;;;;;;;4.3;96.52441;95021.39;;;;
2019/10/04 02:58:02;;;;;;;4.1;3.7;;;;;;;4.3;96.52441;95021.39;;;;
2019/10/04 02:59:04;;;;;;;4.1;3.7;;;;;;;4.3;96.52441;95021.39;;;;
2019/10/04 03:00:05;;;;;;;4.1;3.7;;;;;;;4.3;96.52441;95021.39;;;;
2019/10/04 03:01:07;;;;;;;4.1;3.7;;;;;;;4.3;96.52441;95021.39;;;;
2019/10/04 03:02:08;;;;;;;4.1;3.7;;;;;;;4.3;96.52441;95021.39;;;;
2019/10/04 03:03:09;;;;;;;5.5;3.65;;;;;;;4.54;96.68262;95056.06;;;;
2019/10/04 03:04:10;;;;;;;5.5;3.65;;;;;;;4.54;96.68262;95056.06;;;;
2019/10/04 03:05:11;;;;;;;5.5;3.65;;;;;;;4.54;96.68262;95056.06;;;;
2019/10/04 03:06:13;;;;;;;5.5;3.65;;;;;;;4.54;96.68262;95056.06;;;;
2019/10/04 03:07:14;;;;;;;5.5;3.65;;;;;;;4.54;96.68262;95056.06;;;;
2019/10/04 03:08:15;;;;;;;5.5;3.65;;;;;;;4.54;96.68262;95056.06;;;;
2019/10/04 03:09:16;;;;;;;5.5;3.65;;;;;;;4.54;96.68262;95056.06;;;;
2019/10/04 03:10:18;;;;;;;5.5;3.65;;;;;;;4.54;96.68262;95056.06;;;;
2019/10/04 03:11:19;;;;;;;5.5;3.65;;;;;;;4.54;96.68262;95056.06;;;;
2019/10/04 03:12:20;;;;;;;5.5;3.65;;;;;;;4.54;96.68262;95056.06;;;;
2019/10/04 03:13:22;;;;;;;5.5;3.65;;;;;;;4.54;96.68262;95056.06;;;;
2019/10/04 03:14:23;;;;;;;3.65;3.1;;;;;;;4.69;96.63184;95040.15;;;;
2019/10/04 03:15:24;;;;;;;3.65;3.1;;;;;;;4.69;96.63184;95040.15;;;;
2019/10/04 03:16:25;;;;;;;3.65;3.1;;;;;;;4.69;96.63184;95040.15;;;;
2019/10/04 03:17:26;;;;;;;3.65;3.1;;;;;;;4.69;96.63184;95040.15;;;;
2019/10/04 03:18:28;;;;;;;3.65;3.1;;;;;;;4.69;96.63184;95040.15;;;;
2019/10/04 03:19:29;;;;;;;3.65;3.1;;;;;;;4.69;96.63184;95040.15;;;;
2019/10/04 03:20:30;;;;;;;3.65;3.1;;;;;;;4.69;96.63184;95040.15;;;;
2019/10/04 03:21:31;;;;;;;3.65;3.1;;;;;;;4.69;96.63184;95040.15;;;;
2019/10/04 03:22:32;;;;;;;3.65;3.1;;;;;;;4.69;96.63184;95040.15;;;;
2019/10/04 03:23:34;;;;;;;3.65;3.1;;;;;;;4.69;96.63184;95040.15;;;;
2019/10/04 03:24:35;;;;;;;4.55;3.15;;;;;;;4.92;96.66406;95054.85;;;;
2019/10/04 03:25:36;;;;;;;4.55;3.15;;;;;;;4.92;96.66406;95054.85;;;;
2019/10/04 03:26:38;;;;;;;4.55;3.15;;;;;;;4.92;96.66406;95054.85;;;;
2019/10/04 03:27:39;;;;;;;4.55;3.15;;;;;;;4.92;96.66406;95054.85;;;;
2019/10/04 03:28:40;;;;;;;4.55;3.15;;;;;;;4.92;96.66406;95054.85;;;;
2019/10/04 03:29:41;;;;;;;4.55;3.15;;;;;;;4.92;96.66406;95054.85;;;;
2019/10/04 03:30:42;;;;;;;4.55;3.15;;;;;;;4.92;96.66406;95054.85;;;;
2019/10/04 03:31:59;;;;;;;4.55;3.15;;;;;;;4.92;96.66406;95054.85;;;;
2019/10/04 03:33:00;;;;;;;4.55;3.15;;;;;;;4.92;96.66406;95054.85;;;;
2019/10/04 03:34:01;;;;;;;4.55;3.15;;;;;;;4.92;96.66406;95054.85;;;;
2019/10/04 03:35:03;;;;;;;4.699999;3;;;;;;;5.01;96.58008;95032.61;;;;
2019/10/04 03:36:05;;;;;;;4.699999;3;;;;;;;5.01;96.58008;95032.61;;;;
2019/10/04 03:37:07;;;;;;;4.699999;3;;;;;;;5.01;96.58008;95032.61;;;;
2019/10/04 03:38:08;;;;;;;4.699999;3;;;;;;;5.01;96.58008;95032.61;;;;
2019/10/04 03:39:12;;;;;;;4.699999;3;;;;;;;5.01;96.58008;95032.61;;;;
2019/10/04 03:41:26;;;;;;;4.699999;3;;;;;;;5.01;96.58008;95032.61;;;;
2019/10/04 03:42:39;;;;;;;4.699999;3;;;;;;;5.01;96.58008;95032.61;;;;
2019/10/04 03:43:41;;;;;;;4.699999;3;;;;;;;5.01;96.58008;95032.61;;;;
2019/10/04 03:44:42;;;;;;;4.699999;3;;;;;;;5.01;96.58008;95032.61;;;;
2019/10/04 03:45:44;;;;;;;4.3;3;;;;;;;5.13;96.7207;95018.48;;;;
2019/10/04 03:47:48;;;;;;;4.3;3;;;;;;;5.13;96.7207;95018.48;;;;
2019/10/04 03:48:49;;;;;;;4.3;3;;;;;;;5.13;96.7207;95018.48;;;;
2019/10/04 03:49:51;;;;;;;4.3;3;;;;;;;5.13;96.7207;95018.48;;;;
2019/10/04 03:50:52;;;;;;;4.3;3;;;;;;;5.13;96.7207;95018.48;;;;
2019/10/04 03:51:53;;;;;;;4.3;3;;;;;;;5.13;96.7207;95018.48;;;;
2019/10/04 03:52:54;;;;;;;4.3;3;;;;;;;5.13;96.7207;95018.48;;;;
2019/10/04 03:53:55;;;;;;;4.3;3;;;;;;;5.13;96.7207;95018.48;;;;
2019/10/04 03:54:56;;;;;;;4.3;3;;;;;;;5.13;96.7207;95018.48;;;;
2019/10/04 03:55:57;;;;;;;4.3;3;;;;;;;5.13;96.7207;95018.48;;;;
2019/10/04 03:56:59;;;;;;;3.1;2.8;;;;;;;5.13;96.75391;94988.12;;;;
2019/10/04 03:58:00;;;;;;;3.1;2.8;;;;;;;5.13;96.75391;94988.12;;;;
2019/10/04 03:59:01;;;;;;;3.1;2.8;;;;;;;5.13;96.75391;94988.12;;;;
2019/10/04 04:00:04;;;;;;;3.1;2.8;;;;;;;5.13;96.75391;94988.12;;;;
2019/10/04 04:01:07;;;;;;;3.1;2.8;;;;;;;5.13;96.75391;94988.12;;;;
2019/10/04 04:02:08;;;;;;;3.1;2.8;;;;;;;5.13;96.75391;94988.12;;;;
2019/10/04 04:03:09;;;;;;;3.1;2.8;;;;;;;5.13;96.75391;94988.12;;;;
2019/10/04 04:04:10;;;;;;;3.1;2.8;;;;;;;5.13;96.75391;94988.12;;;;
2019/10/04 04:05:12;;;;;;;3.1;2.8;;;;;;;5.13;96.75391;94988.12;;;;
2019/10/04 04:06:15;;;;;;;3.1;2.8;;;;;;;5.13;96.75391;94988.12;;;;
2019/10/04 04:07:16;;;;;;;3;2.7;;;;;;;5.16;96.92578;94989.57;;;;
2019/10/04 04:08:17;;;;;;;3;2.7;;;;;;;5.16;96.92578;94989.57;;;;
2019/10/04 04:09:18;;;;;;;3;2.7;;;;;;;5.16;96.92578;94989.57;;;;
2019/10/04 04:10:19;;;;;;;3;2.7;;;;;;;5.16;96.92578;94989.57;;;;
2019/10/04 04:11:21;;;;;;;3;2.7;;;;;;;5.16;96.92578;94989.57;;;;
2019/10/04 04:12:22;;;;;;;3;2.7;;;;;;;5.16;96.92578;94989.57;;;;
2019/10/04 04:13:23;;;;;;;3;2.7;;;;;;;5.16;96.92578;94989.57;;;;
2019/10/04 04:14:24;;;;;;;3;2.7;;;;;;;5.16;96.92578;94989.57;;;;
2019/10/04 04:15:25;;;;;;;3;2.7;;;;;;;5.16;96.92578;94989.57;;;;
2019/10/04 04:16:26;;;;;;;3;2.7;;;;;;;5.16;96.92578;94989.57;;;;
2019/10/04 04:17:27;;;;;;;3.8;2.6;;;;;;;5.2;97.15527;94966.69;;;;
2019/10/04 04:18:28;;;;;;;3.8;2.6;;;;;;;5.2;97.15527;94966.69;;;;
2019/10/04 04:19:30;;;;;;;3.8;2.6;;;;;;;5.2;97.15527;94966.69;;;;
2019/10/04 04:20:31;;;;;;;3.8;2.6;;;;;;;5.2;97.15527;94966.69;;;;
2019/10/04 04:21:32;;;;;;;3.8;2.6;;;;;;;5.2;97.15527;94966.69;;;;
2019/10/04 04:22:33;;;;;;;3.8;2.6;;;;;;;5.2;97.15527;94966.69;;;;
2019/10/04 04:23:34;;;;;;;3.8;2.6;;;;;;;5.2;97.15527;94966.69;;;;
2019/10/04 04:24:36;;;;;;;3.8;2.6;;;;;;;5.2;97.15527;94966.69;;;;
2019/10/04 04:25:37;;;;;;;3.8;2.6;;;;;;;5.2;97.15527;94966.69;;;;
2019/10/04 04:26:38;;;;;;;3.8;2.6;;;;;;;5.2;97.15527;94966.69;;;;
2019/10/04 04:27:39;;;;;;;3.8;2.6;;;;;;;5.2;97.15527;94966.69;;;;
2019/10/04 04:28:40;;;;;;;3.7;3;;;;;;;5.35;97.07324;94968.6;;;;
2019/10/04 04:29:41;;;;;;;3.7;3;;;;;;;5.35;97.07324;94968.6;;;;
2019/10/04 04:30:42;;;;;;;3.7;3;;;;;;;5.35;97.07324;94968.6;;;;
2019/10/04 04:31:43;;;;;;;3.7;3;;;;;;;5.35;97.07324;94968.6;;;;
2019/10/04 04:32:44;;;;;;;3.7;3;;;;;;;5.35;97.07324;94968.6;;;;
2019/10/04 04:33:46;;;;;;;3.7;3;;;;;;;5.35;97.07324;94968.6;;;;
2019/10/04 04:34:47;;;;;;;3.7;3;;;;;;;5.35;97.07324;94968.6;;;;
2019/10/04 04:35:48;;;;;;;3.7;3;;;;;;;5.35;97.07324;94968.6;;;;
2019/10/04 04:36:49;;;;;;;3.7;3;;;;;;;5.35;97.07324;94968.6;;;;
2019/10/04 04:37:50;;;;;;;3.7;3;;;;;;;5.35;97.07324;94968.6;;;;
2019/10/04 04:38:51;;;;;;;3.7;3;;;;;;;5.35;97.07324;94968.6;;;;
2019/10/04 04:39:52;;;;;;;3.7;3;;;;;;;5.35;97.07324;94968.6;;;;
2019/10/04 04:40:55;;;;;;;3.7;3;;;;;;;5.35;97.07324;94968.6;;;;
2019/10/04 04:41:56;;;;;;;3.7;3;;;;;;;5.35;97.07324;94968.6;;;;
2019/10/04 04:42:57;;;;;;;3.7;3;;;;;;;5.35;97.07324;94968.6;;;;
2019/10/04 04:43:58;;;;;;;3.7;3;;;;;;;5.35;97.07324;94968.6;;;;
2019/10/04 04:44:59;;;;;;;3.7;3;;;;;;;5.35;97.07324;94968.6;;;;
2019/10/04 04:46:00;;;;;;;3.7;3;;;;;;;5.35;97.07324;94968.6;;;;
2019/10/04 04:47:02;;;;;;;3.7;3;;;;;;;5.35;97.07324;94968.6;;;;
2019/10/04 04:48:03;;;;;;;3.7;3;;;;;;;5.35;97.07324;94968.6;;;;
2019/10/04 04:49:04;;;;;;;3.7;3;;;;;;;5.35;97.07324;94968.6;;;;
2019/10/04 04:50:06;;;;;;;2.900001;2.6;;;;;;;5.66;96.78613;94912.45;;;;
2019/10/04 04:51:07;;;;;;;2.900001;2.6;;;;;;;5.66;96.78613;94912.45;;;;
2019/10/04 04:52:39;;;;;;;2.900001;2.6;;;;;;;5.66;96.78613;94912.45;;;;
2019/10/04 04:53:40;;;;;;;2.900001;2.6;;;;;;;5.66;96.78613;94912.45;;;;
2019/10/04 04:54:41;;;;;;;2.900001;2.6;;;;;;;5.66;96.78613;94912.45;;;;
2019/10/04 04:55:42;;;;;;;2.900001;2.6;;;;;;;5.66;96.78613;94912.45;;;;
2019/10/04 04:56:43;;;;;;;2.900001;2.6;;;;;;;5.66;96.78613;94912.45;;;;
2019/10/04 04:57:44;;;;;;;2.900001;2.6;;;;;;;5.66;96.78613;94912.45;;;;
2019/10/04 04:58:46;;;;;;;2.900001;2.6;;;;;;;5.66;96.78613;94912.45;;;;
2019/10/04 04:59:47;;;;;;;2.900001;2.6;;;;;;;5.66;96.78613;94912.45;;;;
2019/10/04 05:00:48;;;;;;;3.4;3.1;;;;;;;5.62;96.84082;94875.58;;;;
2019/10/04 05:01:49;;;;;;;3.4;3.1;;;;;;;5.62;96.84082;94875.58;;;;
2019/10/04 05:02:50;;;;;;;3.4;3.1;;;;;;;5.62;96.84082;94875.58;;;;
2019/10/04 05:03:52;;;;;;;3.4;3.1;;;;;;;5.62;96.84082;94875.58;;;;
2019/10/04 05:04:53;;;;;;;3.4;3.1;;;;;;;5.62;96.84082;94875.58;;;;
2019/10/04 05:05:54;;;;;;;3.4;3.1;;;;;;;5.62;96.84082;94875.58;;;;
2019/10/04 05:06:55;;;;;;;3.4;3.1;;;;;;;5.62;96.84082;94875.58;;;;
2019/10/04 05:07:56;;;;;;;3.4;3.1;;;;;;;5.62;96.84082;94875.58;;;;
2019/10/04 05:08:58;;;;;;;3.4;3.1;;;;;;;5.62;96.84082;94875.58;;;;
2019/10/04 05:09:59;;;;;;;3.4;3.1;;;;;;;5.62;96.84082;94875.58;;;;
2019/10/04 05:11:00;;;;;;;2.65;2.45;;;;;;;5.68;97.09668;94867.53;;;;
2019/10/04 05:12:01;;;;;;;2.65;2.45;;;;;;;5.68;97.09668;94867.53;;;;
2019/10/04 05:13:02;;;;;;;2.65;2.45;;;;;;;5.68;97.09668;94867.53;;;;
2019/10/04 05:14:04;;;;;;;2.65;2.45;;;;;;;5.68;97.09668;94867.53;;;;
2019/10/04 05:15:05;;;;;;;2.65;2.45;;;;;;;5.68;97.09668;94867.53;;;;
2019/10/04 05:16:08;;;;;;;2.65;2.45;;;;;;;5.68;97.09668;94867.53;;;;
2019/10/04 05:17:09;;;;;;;2.65;2.45;;;;;;;5.68;97.09668;94867.53;;;;
2019/10/04 05:18:10;;;;;;;2.65;2.45;;;;;;;5.68;97.09668;94867.53;;;;
2019/10/04 05:19:11;;;;;;;2.65;2.45;;;;;;;5.68;97.09668;94867.53;;;;
2019/10/04 05:20:12;;;;;;;2.65;2.45;;;;;;;5.68;97.09668;94867.53;;;;
2019/10/04 05:21:32;;;;;;;2.75;2.55;;;;;;;5.74;97.07617;94850.16;;;;
2019/10/04 05:22:33;;;;;;;2.75;2.55;;;;;;;5.74;97.07617;94850.16;;;;
2019/10/04 05:23:34;;;;;;;2.75;2.55;;;;;;;5.74;97.07617;94850.16;;;;
2019/10/04 05:24:35;;;;;;;2.75;2.55;;;;;;;5.74;97.07617;94850.16;;;;
2019/10/04 05:25:36;;;;;;;2.75;2.55;;;;;;;5.74;97.07617;94850.16;;;;
2019/10/04 05:26:38;;;;;;;2.75;2.55;;;;;;;5.74;97.07617;94850.16;;;;
2019/10/04 05:27:39;;;;;;;2.75;2.55;;;;;;;5.74;97.07617;94850.16;;;;
2019/10/04 05:28:40;;;;;;;2.75;2.55;;;;;;;5.74;97.07617;94850.16;;;;
2019/10/04 05:29:41;;;;;;;2.75;2.55;;;;;;;5.74;97.07617;94850.16;;;;
2019/10/04 05:30:42;;;;;;;2.75;2.55;;;;;;;5.74;97.07617;94850.16;;;;
2019/10/04 05:31:44;;;;;;;2.75;2.55;;;;;;;5.74;97.07617;94850.16;;;;
2019/10/04 05:32:45;;;;;;;5.65;2.75;;;;;;;5.8;97.20605;94860.42;;;;
2019/10/04 05:33:46;;;;;;;5.65;2.75;;;;;;;5.8;97.20605;94860.42;;;;
2019/10/04 05:34:47;;;;;;;5.65;2.75;;;;;;;5.8;97.20605;94860.42;;;;
2019/10/04 05:35:49;;;;;;;5.65;2.75;;;;;;;5.8;97.20605;94860.42;;;;
2019/10/04 05:36:50;;;;;;;5.65;2.75;;;;;;;5.8;97.20605;94860.42;;;;
2019/10/04 05:37:51;;;;;;;5.65;2.75;;;;;;;5.8;97.20605;94860.42;;;;
2019/10/04 05:38:52;;;;;;;5.65;2.75;;;;;;;5.8;97.20605;94860.42;;;;
2019/10/04 05:39:53;;;;;;;5.65;2.75;;;;;;;5.8;97.20605;94860.42;;;;
2019/10/04 05:40:54;;;;;;;5.65;2.75;;;;;;;5.8;97.20605;94860.42;;;;
2019/10/04 05:41:56;;;;;;;5.65;2.75;;;;;;;5.8;97.20605;94860.42;;;;
2019/10/04 05:42:57;;;;;;;5.65;2.75;;;;;;;5.8;97.20605;94860.42;;;;
2019/10/04 05:43:58;;;;;;;5.65;2.75;;;;;;;5.8;97.20605;94860.42;;;;
2019/10/04 05:44:59;;;;;;;5.65;2.75;;;;;;;5.8;97.20605;94860.42;;;;
2019/10/04 05:46:00;;;;;;;5.65;2.75;;;;;;;5.8;97.20605;94860.42;;;;
2019/10/04 05:47:01;;;;;;;5.65;2.75;;;;;;;5.8;97.20605;94860.42;;;;
2019/10/04 05:48:03;;;;;;;5.65;2.75;;;;;;;5.8;97.20605;94860.42;;;;
2019/10/04 05:49:04;;;;;;;5.65;2.75;;;;;;;5.8;97.20605;94860.42;;;;
2019/10/04 05:50:05;;;;;;;5.65;2.75;;;;;;;5.8;97.20605;94860.42;;;;
2019/10/04 05:51:08;;;;;;;5.65;2.75;;;;;;;5.8;97.20605;94860.42;;;;
2019/10/04 05:52:09;;;;;;;5.65;2.75;;;;;;;5.8;97.20605;94860.42;;;;
2019/10/04 05:53:10;;;;;;;5.65;2.75;;;;;;;5.8;97.20605;94860.42;;;;
2019/10/04 05:54:12;;;;;;;2.7;2.5;;;;;;;6.22;96.73145;94863.84;;;;
2019/10/04 05:55:13;;;;;;;2.7;2.5;;;;;;;6.22;96.73145;94863.84;;;;
2019/10/04 05:56:15;;;;;;;2.7;2.5;;;;;;;6.22;96.73145;94863.84;;;;
2019/10/04 05:57:16;;;;;;;2.7;2.5;;;;;;;6.22;96.73145;94863.84;;;;
2019/10/04 05:58:17;;;;;;;2.7;2.5;;;;;;;6.22;96.73145;94863.84;;;;
2019/10/04 05:59:18;;;;;;;2.7;2.5;;;;;;;6.22;96.73145;94863.84;;;;
2019/10/04 06:00:20;;;;;;;2.7;2.5;;;;;;;6.22;96.73145;94863.84;;;;
2019/10/04 06:01:34;;;;;;;2.7;2.5;;;;;;;6.22;96.73145;94863.84;;;;
2019/10/04 06:02:36;;;;;;;2.7;2.5;;;;;;;6.22;96.73145;94863.84;;;;
2019/10/04 06:03:37;;;;;;;2.7;2.5;;;;;;;6.22;96.73145;94863.84;;;;